Página principal
METAR-TAF:

METAR-TAF

Aeroportos :

Gran Canária, Espanha

Aeroporto de Gran Canária

latitude: 27-56N, longitude: 015-23W, altura: 23 m

Observação actual do tempo

O boletim foi feito há 32 minutos, às 19:30 UTC
Vento 22 kt de nor-nordeste, variando entre nor-noroeste e nordeste
Temperatura 18°C
Humidade 64%
Pressão 1020 hPa
Visibilidade 10 km ou mais
Poucas nuvensa uma altura de 5000 ft
Nuvens dispersasa uma altura de 7000 ft

METAR: GCLP 121930Z 02022KT 340V040 9999 FEW050 SCT070 18/11 Q1020 NOSIG

Hora: 20:02 (20:02 UTC)

Previsão

O boletim foi feito há 6 horas e 2 minutos, às 14:00 UTC
Previsão válida de 12 às 15 UTC a 13 às 15 UTC
Vento 23 kt de norte
Visibilidade 10 km ou mais
Nuvens dispersasa uma altura de 4000 ft
Temporariamente
de 12 às 15 UTC a 13 às 15 UTC
Vento 25 kt de norte com rajadas de 35 kt

TAF: GCLP 121400Z 1215/1315 01023KT 9999 SCT040 TX21/1215Z TN16/1306Z TEMPO 1215/1315 01025G35KT

Observações e previsões do tempo de mais de 4000 aeroportos (mensagens METAR e TAF).

As estações disponíveis são os pontos amarelos e vermelhos sobre o mapa.

Mova o rato sobre o mapa para ver o nome da estação.

Depois clique no ponto para visualizar as observações e previsões meteorológicas.

Para alterar o mapa : clique nos botões verdes com uma cruz preta para aumentar o zoom; no botão verde com uma pitada de zoom; ou nas setas verdes para mapas adjacentes.


METAR-TAF: